createdAt,value
2023-03-11T00:00:47.000Z,29.9
2023-03-11T00:01:58.000Z,29.9
2023-03-11T00:03:08.138Z,29.9
2023-03-11T00:04:18.256Z,29.9
2023-03-11T00:05:28.000Z,29.9
2023-03-11T00:06:38.493Z,29.9
2023-03-11T00:07:48.000Z,29.9
2023-03-11T00:08:58.726Z,29.9
2023-03-11T00:10:08.835Z,29.9
2023-03-11T00:11:17.000Z,29.9
2023-03-11T00:12:28.000Z,29.9
2023-03-11T00:13:38.200Z,29.9
2023-03-11T00:14:48.311Z,29.9
2023-03-11T00:15:58.000Z,29.9
2023-03-11T00:17:08.000Z,29.9
2023-03-11T00:18:18.000Z,29.9
2023-03-11T00:19:28.000Z,29.9
2023-03-11T00:20:38.000Z,29.9
2023-03-11T00:21:49.015Z,29.9
2023-03-11T00:22:59.000Z,29.9
2023-03-11T00:24:09.243Z,29.9
2023-03-11T00:25:19.000Z,29.9
2023-03-11T00:26:28.000Z,29.9
2023-03-11T00:28:48.000Z,29.9
2023-03-11T00:29:58.000Z,29.9
2023-03-11T00:31:08.000Z,30
2023-03-11T00:32:19.000Z,30
2023-03-11T00:33:29.183Z,30
2023-03-11T00:34:39.000Z,30
2023-03-11T00:35:49.416Z,30
2023-03-11T00:36:59.535Z,30
2023-03-11T00:38:09.000Z,29.9
2023-03-11T00:40:29.000Z,30
2023-03-11T00:41:39.020Z,29.9
2023-03-11T00:42:49.000Z,30
2023-03-11T00:43:59.000Z,30
2023-03-11T00:45:09.000Z,30
2023-03-11T00:46:19.476Z,30
2023-03-11T00:47:29.000Z,30
2023-03-11T00:48:39.707Z,30
2023-03-11T00:49:49.000Z,30
2023-03-11T00:50:59.000Z,30
2023-03-11T00:52:10.000Z,30
2023-03-11T00:53:20.000Z,30
2023-03-11T00:54:30.288Z,30
2023-03-11T00:55:40.400Z,30
2023-03-11T00:56:49.000Z,30
2023-03-11T00:57:59.000Z,30
2023-03-11T00:59:09.778Z,30
2023-03-11T01:00:19.885Z,30
2023-03-11T01:01:29.000Z,30
2023-03-11T01:02:39.136Z,30
2023-03-11T01:03:49.000Z,30
2023-03-11T01:04:59.000Z,30
2023-03-11T01:06:09.000Z,30
2023-03-11T01:07:19.000Z,30
2023-03-11T01:08:29.713Z,30
2023-03-11T01:09:39.000Z,30
2023-03-11T01:10:49.943Z,30
2023-03-11T01:12:00.064Z,30
2023-03-11T01:13:10.000Z,30
2023-03-11T01:14:20.000Z,30
2023-03-11T01:15:30.000Z,30
2023-03-11T01:16:40.527Z,30
2023-03-11T01:17:49.000Z,30
2023-03-11T01:18:59.000Z,30
2023-03-11T01:20:09.892Z,30
2023-03-11T01:21:20.006Z,30
2023-03-11T01:22:30.000Z,30
2023-03-11T01:23:40.254Z,30
2023-03-11T01:24:50.000Z,30
2023-03-11T01:26:00.000Z,30
2023-03-11T01:27:10.000Z,30
2023-03-11T01:28:20.703Z,30
2023-03-11T01:29:30.817Z,30
2023-03-11T01:30:40.931Z,30
2023-03-11T01:31:51.000Z,30
2023-03-11T01:33:00.000Z,30
2023-03-11T01:34:10.000Z,30
2023-03-11T01:35:20.000Z,30
2023-03-11T01:36:30.000Z,30
2023-03-11T01:37:40.000Z,30
2023-03-11T01:38:50.758Z,30
2023-03-11T01:40:00.000Z,30
2023-03-11T01:41:10.995Z,30
2023-03-11T01:42:21.000Z,30
2023-03-11T01:43:31.223Z,30
2023-03-11T01:44:41.000Z,30
2023-03-11T01:45:51.458Z,30
2023-03-11T01:47:01.000Z,30
2023-03-11T01:48:10.000Z,30
2023-03-11T01:49:20.000Z,30
2023-03-11T01:50:30.000Z,30
2023-03-11T01:51:41.000Z,30
2023-03-11T01:52:51.000Z,30
2023-03-11T01:54:01.290Z,30
2023-03-11T01:55:11.000Z,30
2023-03-11T01:56:21.516Z,30
2023-03-11T01:57:31.000Z,30
2023-03-11T01:58:41.000Z,30
2023-03-11T01:59:51.872Z,30
2023-03-11T02:01:01.000Z,30
2023-03-11T02:02:12.000Z,30
2023-03-11T02:03:21.000Z,30
2023-03-11T02:04:31.000Z,30
2023-03-11T02:05:41.463Z,30
2023-03-11T02:06:51.577Z,30
2023-03-11T02:08:01.000Z,30
2023-03-11T02:09:11.808Z,30
2023-03-11T02:10:21.924Z,30
2023-03-11T02:11:32.000Z,30
2023-03-11T02:12:42.000Z,30
2023-03-11T02:13:52.000Z,30
2023-03-11T02:15:02.000Z,30
2023-03-11T02:16:12.509Z,30
2023-03-11T02:17:22.616Z,30
2023-03-11T02:18:31.000Z,30
2023-03-11T02:19:41.866Z,30
2023-03-11T02:20:51.000Z,30
2023-03-11T02:22:02.097Z,30
2023-03-11T02:23:12.000Z,30
2023-03-11T02:24:22.000Z,30
2023-03-11T02:25:32.000Z,30
2023-03-11T02:26:42.000Z,30
2023-03-11T02:27:52.000Z,30
2023-03-11T02:29:02.000Z,30
2023-03-11T02:30:12.926Z,30
2023-03-11T02:31:23.033Z,30
2023-03-11T02:32:33.000Z,30
2023-03-11T02:33:42.000Z,30
2023-03-11T02:36:02.520Z,30
2023-03-11T02:37:12.619Z,30
2023-03-11T02:38:22.000Z,30
2023-03-11T02:39:32.000Z,30
2023-03-11T02:40:42.966Z,30
2023-03-11T02:41:53.085Z,30
2023-03-11T02:43:03.210Z,30
2023-03-11T02:44:13.000Z,30
2023-03-11T02:45:23.000Z,30
2023-03-11T02:46:33.556Z,30
2023-03-11T02:47:43.000Z,30
2023-03-11T02:48:52.000Z,30
2023-03-11T02:50:02.000Z,30
2023-03-11T02:51:13.000Z,30
2023-03-11T02:52:23.000Z,30
2023-03-11T02:53:33.000Z,30
2023-03-11T02:54:43.373Z,30
2023-03-11T02:55:53.492Z,30
2023-03-11T02:57:03.000Z,30
2023-03-11T02:58:13.000Z,30
2023-03-11T02:59:23.000Z,30
2023-03-11T03:00:33.000Z,30
2023-03-11T03:01:44.000Z,30
2023-03-11T03:02:54.000Z,30
2023-03-11T03:04:04.000Z,30
2023-03-11T03:05:13.000Z,30
2023-03-11T03:06:23.000Z,30
2023-03-11T03:07:33.000Z,30
2023-03-11T03:08:43.000Z,30
2023-03-11T03:09:53.000Z,30
2023-03-11T03:11:04.027Z,30
2023-03-11T03:12:14.000Z,30
2023-03-11T03:13:24.244Z,30
2023-03-11T03:14:34.361Z,30
2023-03-11T03:15:44.000Z,30
2023-03-11T03:16:54.000Z,30
2023-03-11T03:18:04.000Z,30
2023-03-11T03:19:14.827Z,30
2023-03-11T03:20:23.000Z,30
2023-03-11T03:21:34.000Z,30
2023-03-11T03:22:44.000Z,30
2023-03-11T03:23:54.000Z,30
2023-03-11T03:25:04.423Z,30
2023-03-11T03:26:14.000Z,30
2023-03-11T03:27:24.000Z,30
2023-03-11T03:28:34.000Z,30
2023-03-11T03:29:44.886Z,30
2023-03-11T03:30:55.002Z,30
2023-03-11T03:32:05.000Z,30
2023-03-11T03:33:15.000Z,30
2023-03-11T03:34:25.000Z,30
2023-03-11T03:35:34.481Z,30
2023-03-11T03:36:44.000Z,30
2023-03-11T03:37:54.000Z,30
2023-03-11T03:39:04.828Z,30
2023-03-11T03:40:14.946Z,30
2023-03-11T03:41:25.000Z,30
2023-03-11T03:42:35.000Z,30
2023-03-11T03:43:45.000Z,30
2023-03-11T03:44:55.000Z,30
2023-03-11T03:46:05.000Z,30
2023-03-11T03:47:15.000Z,30
2023-03-11T03:48:25.000Z,30
2023-03-11T03:49:35.000Z,30
2023-03-11T03:50:45.005Z,30
2023-03-11T03:51:55.000Z,30
2023-03-11T03:53:05.235Z,30
2023-03-11T03:54:15.353Z,30
2023-03-11T03:55:25.469Z,30
2023-03-11T03:56:35.596Z,30
2023-03-11T03:57:45.000Z,30
2023-03-11T03:58:55.000Z,30
2023-03-11T04:00:05.933Z,30
2023-03-11T04:01:16.000Z,30
2023-03-11T04:02:26.000Z,30
2023-03-11T04:03:36.000Z,30
2023-03-11T04:04:46.000Z,30
2023-03-11T04:05:55.540Z,30
2023-03-11T04:07:05.000Z,30
2023-03-11T04:08:15.770Z,30
2023-03-11T04:09:25.875Z,30
2023-03-11T04:10:35.000Z,30
2023-03-11T04:11:46.118Z,30
2023-03-11T04:12:56.222Z,30
2023-03-11T04:14:06.332Z,30
2023-03-11T04:15:16.000Z,30
2023-03-11T04:16:26.000Z,30
2023-03-11T04:17:36.000Z,30
2023-03-11T04:18:46.000Z,30
2023-03-11T04:19:56.000Z,30
2023-03-11T04:21:06.050Z,30
2023-03-11T04:22:16.166Z,30
2023-03-11T04:23:26.000Z,30
2023-03-11T04:24:36.000Z,30
2023-03-11T04:25:46.000Z,30
2023-03-11T04:26:56.638Z,30
2023-03-11T04:28:06.744Z,30
2023-03-11T04:29:16.000Z,30
2023-03-11T04:30:26.000Z,30
2023-03-11T04:31:37.000Z,30
2023-03-11T04:32:47.000Z,30
2023-03-11T04:33:57.000Z,30
2023-03-11T04:35:07.000Z,30
2023-03-11T04:36:16.000Z,30
2023-03-11T04:37:26.000Z,30
2023-03-11T04:38:36.000Z,30
2023-03-11T04:39:46.000Z,30
2023-03-11T04:40:57.039Z,30
2023-03-11T04:42:07.149Z,30
2023-03-11T04:43:17.000Z,30
2023-03-11T04:44:27.382Z,30
2023-03-11T04:45:37.000Z,30
2023-03-11T04:46:47.631Z,30
2023-03-11T04:47:57.000Z,30
2023-03-11T04:49:07.000Z,30
2023-03-11T04:50:17.000Z,30
2023-03-11T04:51:27.096Z,30
2023-03-11T04:52:37.000Z,30
2023-03-11T04:53:47.000Z,30
2023-03-11T04:54:57.449Z,30
2023-03-11T04:56:07.000Z,30
2023-03-11T04:57:16.000Z,30
2023-03-11T04:58:26.811Z,30
2023-03-11T04:59:36.000Z,30
2023-03-11T05:00:47.000Z,30
2023-03-11T05:01:57.160Z,30
2023-03-11T05:03:07.000Z,30
2023-03-11T05:04:17.000Z,30
2023-03-11T05:05:27.000Z,30
2023-03-11T05:07:47.769Z,30
2023-03-11T05:08:57.000Z,30
2023-03-11T05:10:07.000Z,30
2023-03-11T05:11:18.000Z,30
2023-03-11T05:12:27.000Z,30
2023-03-11T05:13:37.331Z,30
2023-03-11T05:14:47.457Z,30
2023-03-11T05:15:57.000Z,30
2023-03-11T05:17:07.000Z,30
2023-03-11T05:18:17.801Z,30
2023-03-11T05:19:27.000Z,30
2023-03-11T05:20:38.029Z,30
2023-03-11T05:21:48.000Z,30
2023-03-11T05:22:58.258Z,30
2023-03-11T05:24:08.000Z,30
2023-03-11T05:25:18.000Z,30
2023-03-11T05:26:28.615Z,30
2023-03-11T05:27:37.738Z,30
2023-03-11T05:28:47.862Z,30
2023-03-11T05:29:57.000Z,30
2023-03-11T05:31:08.000Z,30
2023-03-11T05:32:18.201Z,30
2023-03-11T05:33:28.320Z,29.9
2023-03-11T05:34:38.435Z,30
2023-03-11T05:35:48.552Z,29.9
2023-03-11T05:36:58.669Z,29.9
2023-03-11T05:38:08.000Z,30
2023-03-11T05:39:18.000Z,29.9
2023-03-11T05:40:29.000Z,29.9
2023-03-11T05:41:39.000Z,29.9
2023-03-11T05:42:48.000Z,29.9
2023-03-11T05:43:58.000Z,30
2023-03-11T05:45:08.497Z,29.9
2023-03-11T05:46:18.000Z,29.9
2023-03-11T05:47:28.000Z,29.9
2023-03-11T05:48:38.000Z,30
2023-03-11T05:49:48.961Z,29.9
2023-03-11T05:50:59.073Z,29.9
2023-03-11T05:52:09.000Z,29.9
2023-03-11T05:53:19.000Z,29.9
2023-03-11T05:54:29.422Z,29.9
2023-03-11T05:55:39.532Z,29.9
2023-03-11T05:56:49.000Z,29.9
2023-03-11T05:57:58.000Z,29.9
2023-03-11T05:59:08.901Z,29.9
2023-03-11T06:00:19.027Z,29.9
2023-03-11T06:01:29.000Z,29.9
2023-03-11T06:02:39.000Z,29.9
2023-03-11T06:03:49.360Z,29.9
2023-03-11T06:04:59.000Z,29.9
2023-03-11T06:06:09.000Z,29.9
2023-03-11T06:07:19.706Z,29.9
2023-03-11T06:08:29.832Z,29.9
2023-03-11T06:10:50.000Z,29.9
2023-03-11T06:12:00.000Z,29.9
2023-03-11T06:13:09.311Z,29.9
2023-03-11T06:14:19.419Z,29.9
2023-03-11T06:15:29.541Z,29.9
2023-03-11T06:16:39.657Z,29.9
2023-03-11T06:17:49.000Z,29.9
2023-03-11T06:18:59.000Z,29.9
2023-03-11T06:20:09.000Z,29.9
2023-03-11T06:21:20.000Z,29.9
2023-03-11T06:22:30.241Z,29.8
2023-03-11T06:23:40.347Z,29.8
2023-03-11T06:24:50.000Z,29.8
2023-03-11T06:26:00.000Z,29.8
2023-03-11T06:27:10.697Z,29.8
2023-03-11T06:29:29.000Z,29.8
2023-03-11T06:30:40.000Z,29.8
2023-03-11T06:31:50.000Z,29.8
2023-03-11T06:33:00.000Z,29.8
2023-03-11T06:34:10.000Z,29.8
2023-03-11T06:35:20.526Z,29.8
2023-03-11T06:36:30.000Z,29.8
2023-03-11T06:37:40.000Z,29.8
2023-03-11T06:38:50.867Z,29.7
2023-03-11T06:40:00.000Z,29.7
2023-03-11T06:41:11.099Z,29.7
2023-03-11T06:42:21.000Z,29.7
2023-03-11T06:43:30.000Z,29.7
2023-03-11T06:44:40.000Z,29.7
2023-03-11T06:45:50.000Z,29.7
2023-03-11T06:47:00.705Z,29.7
2023-03-11T06:48:10.000Z,29.7
2023-03-11T06:49:20.930Z,29.7
2023-03-11T06:50:31.054Z,29.7
2023-03-11T06:51:41.000Z,29.7
2023-03-11T06:52:51.273Z,29.7
2023-03-11T06:54:01.398Z,29.7
2023-03-11T06:55:11.509Z,29.7
2023-03-11T06:56:21.621Z,29.7
2023-03-11T06:57:31.000Z,29.6
2023-03-11T06:58:40.867Z,29.6
2023-03-11T06:59:50.986Z,29.6
2023-03-11T07:01:01.000Z,29.6
2023-03-11T07:02:11.220Z,29.6
2023-03-11T07:03:21.000Z,29.6
2023-03-11T07:04:31.461Z,29.6
2023-03-11T07:05:41.000Z,29.6
2023-03-11T07:06:51.000Z,29.6
2023-03-11T07:08:01.799Z,29.6
2023-03-11T07:09:11.000Z,29.6
2023-03-11T07:10:22.000Z,29.6
2023-03-11T07:11:32.000Z,29.6
2023-03-11T07:12:42.000Z,29.6
2023-03-11T07:13:51.000Z,29.6
2023-03-11T07:15:01.000Z,29.6
2023-03-11T07:16:11.000Z,29.5
2023-03-11T07:17:21.000Z,29.5
2023-03-11T07:18:31.857Z,29.5
2023-03-11T07:19:41.000Z,29.5
2023-03-11T07:20:52.105Z,29.5
2023-03-11T07:22:02.000Z,29.5
2023-03-11T07:23:12.000Z,29.5
2023-03-11T07:24:22.000Z,29.5
2023-03-11T07:25:32.555Z,29.5
2023-03-11T07:26:42.000Z,29.5
2023-03-11T07:27:52.784Z,29.5
2023-03-11T07:29:01.915Z,29.4
2023-03-11T07:30:12.029Z,29.4
2023-03-11T07:31:22.000Z,29.4
2023-03-11T07:32:32.262Z,29.4
2023-03-11T07:33:42.000Z,29.4
2023-03-11T07:34:52.000Z,29.4
2023-03-11T07:36:02.611Z,29.4
2023-03-11T07:37:12.726Z,29.4
2023-03-11T07:38:22.000Z,29.4
2023-03-11T07:39:32.000Z,29.3
2023-03-11T07:40:43.080Z,29.4
2023-03-11T07:41:53.191Z,29.3
2023-03-11T07:43:03.308Z,29.3
2023-03-11T07:44:12.000Z,29.3
2023-03-11T07:45:22.557Z,29.3
2023-03-11T07:46:32.000Z,29.3
2023-03-11T07:47:42.789Z,29.3
2023-03-11T07:48:52.000Z,29.3
2023-03-11T07:50:03.000Z,29.3
2023-03-11T07:51:13.000Z,29.3
2023-03-11T07:52:23.000Z,29.3
2023-03-11T07:53:33.000Z,29.3
2023-03-11T07:54:43.481Z,29.2
2023-03-11T07:55:53.000Z,29.2
2023-03-11T07:57:03.000Z,29.2
2023-03-11T07:58:13.000Z,29.2
2023-03-11T07:59:22.000Z,29.2
2023-03-11T08:00:33.081Z,29.2
2023-03-11T08:01:43.000Z,29.2
2023-03-11T08:02:53.000Z,29.1
2023-03-11T08:04:03.000Z,29.1
2023-03-11T08:05:13.000Z,29.1
2023-03-11T08:06:23.000Z,29.1
2023-03-11T08:07:33.000Z,29.1
2023-03-11T08:08:43.000Z,29.1
2023-03-11T08:09:53.000Z,29.1
2023-03-11T08:11:04.122Z,29.1
2023-03-11T08:12:14.000Z,29.1
2023-03-11T08:13:24.357Z,29.1
2023-03-11T08:14:33.480Z,29.1
2023-03-11T08:15:43.000Z,29.1
2023-03-11T08:16:53.712Z,29.1
2023-03-11T08:18:03.000Z,29
2023-03-11T08:19:13.947Z,29.1
2023-03-11T08:20:24.000Z,29
2023-03-11T08:21:34.000Z,29
2023-03-11T08:22:44.000Z,29
2023-03-11T08:23:54.000Z,29
2023-03-11T08:25:04.000Z,29
2023-03-11T08:26:14.640Z,29
2023-03-11T08:27:24.754Z,29
2023-03-11T08:28:34.884Z,29
2023-03-11T08:29:44.006Z,29
2023-03-11T08:30:54.000Z,29
2023-03-11T08:32:04.240Z,28.9
2023-03-11T08:33:14.000Z,28.9
2023-03-11T08:34:24.000Z,28.9
2023-03-11T08:35:34.590Z,28.9
2023-03-11T08:36:44.000Z,28.9
2023-03-11T08:37:54.000Z,28.9
2023-03-11T08:39:04.000Z,28.9
2023-03-11T08:40:15.054Z,28.9
2023-03-11T08:41:25.000Z,28.9
2023-03-11T08:42:35.000Z,28.9
2023-03-11T08:43:45.000Z,28.8
2023-03-11T08:44:54.000Z,28.8
2023-03-11T08:46:04.000Z,28.8
2023-03-11T08:47:14.000Z,28.8
2023-03-11T08:48:24.000Z,28.8
2023-03-11T08:49:34.000Z,28.8
2023-03-11T08:50:45.000Z,28.8
2023-03-11T08:51:55.000Z,28.8
2023-03-11T08:53:04.000Z,28.8
2023-03-11T08:54:14.000Z,28.8
2023-03-11T08:55:24.601Z,28.8
2023-03-11T08:56:34.000Z,28.7
2023-03-11T08:57:44.000Z,28.7
2023-03-11T08:58:54.949Z,28.7
2023-03-11T09:00:05.000Z,28.7
2023-03-11T09:01:15.000Z,28.7
2023-03-11T09:02:25.000Z,28.7
2023-03-11T09:03:35.406Z,28.7
2023-03-11T09:04:45.518Z,28.7
2023-03-11T09:05:55.000Z,28.7
2023-03-11T09:07:05.752Z,28.7
2023-03-11T09:08:14.883Z,28.6
2023-03-11T09:09:24.000Z,28.7
2023-03-11T09:10:35.114Z,28.6
2023-03-11T09:11:45.000Z,28.6
2023-03-11T09:12:55.000Z,28.6
2023-03-11T09:14:05.000Z,28.6
2023-03-11T09:15:15.000Z,28.6
2023-03-11T09:16:25.000Z,28.6
2023-03-11T09:17:35.816Z,28.6
2023-03-11T09:18:45.000Z,28.6
2023-03-11T09:19:56.000Z,28.6
2023-03-11T09:21:06.000Z,28.4
2023-03-11T09:22:16.275Z,28.4
2023-03-11T09:23:25.000Z,28.4
2023-03-11T09:24:35.000Z,28.4
2023-03-11T09:25:45.000Z,28.4
2023-03-11T09:26:55.000Z,28.4
2023-03-11T09:28:05.000Z,28.4
2023-03-11T09:29:15.000Z,28.4
2023-03-11T09:30:26.000Z,28.4
2023-03-11T09:31:36.000Z,28.4
2023-03-11T09:32:46.000Z,28.4
2023-03-11T09:33:56.448Z,28.4
2023-03-11T09:35:06.000Z,28.4
2023-03-11T09:36:16.000Z,28.4
2023-03-11T09:37:26.000Z,28.4
2023-03-11T09:38:35.932Z,28.4
2023-03-11T09:39:46.047Z,28.4
2023-03-11T09:40:56.161Z,28.4
2023-03-11T09:42:06.000Z,28.3
2023-03-11T09:43:16.400Z,28.3
2023-03-11T09:44:26.000Z,28.2
2023-03-11T09:45:36.000Z,28.2
2023-03-11T09:46:46.000Z,28.2
2023-03-11T09:47:56.856Z,28.2
2023-03-11T09:49:06.000Z,28.2
2023-03-11T09:50:17.086Z,28.2
2023-03-11T09:51:27.000Z,28.2
2023-03-11T09:52:37.324Z,28.2
2023-03-11T09:53:46.457Z,28.1
2023-03-11T09:54:56.570Z,28.1
2023-03-11T09:56:06.683Z,28.1
2023-03-11T09:57:16.000Z,28.1
2023-03-11T09:58:26.000Z,28.1
2023-03-11T09:59:37.000Z,28
2023-03-11T10:00:47.000Z,28
2023-03-11T10:01:57.000Z,28
2023-03-11T10:03:07.000Z,28
2023-03-11T10:04:17.000Z,28
2023-03-11T10:05:27.000Z,28
2023-03-11T10:06:37.000Z,28
2023-03-11T10:07:47.000Z,28
2023-03-11T10:08:56.000Z,27.9
2023-03-11T10:10:07.091Z,27.9
2023-03-11T10:11:17.206Z,27.9
2023-03-11T10:12:27.000Z,27.9
2023-03-11T10:13:37.444Z,27.9
2023-03-11T10:14:47.000Z,27.9
2023-03-11T10:15:57.000Z,27.8
2023-03-11T10:17:07.000Z,27.8
2023-03-11T10:18:17.000Z,27.8
2023-03-11T10:19:28.016Z,27.8
2023-03-11T10:20:38.000Z,27.7
2023-03-11T10:21:48.000Z,27.7
2023-03-11T10:22:58.000Z,27.7
2023-03-11T10:24:07.000Z,27.7
2023-03-11T10:25:17.614Z,27.6
2023-03-11T10:26:27.000Z,27.6
2023-03-11T10:27:37.000Z,27.6
2023-03-11T10:28:47.965Z,27.5
2023-03-11T10:29:58.000Z,27.5
2023-03-11T10:31:08.000Z,27.5
2023-03-11T10:32:18.000Z,27.5
2023-03-11T10:33:28.000Z,27.4
2023-03-11T10:34:38.000Z,27.4
2023-03-11T10:35:48.000Z,27.3
2023-03-11T10:36:58.000Z,27.3
2023-03-11T10:38:08.892Z,27.3
2023-03-11T10:39:18.000Z,27.2
2023-03-11T10:40:28.138Z,27.2
2023-03-11T10:41:38.253Z,27.2
2023-03-11T10:42:48.000Z,27.2
2023-03-11T10:43:58.000Z,27.2
2023-03-11T10:45:08.000Z,27.2
2023-03-11T10:46:18.724Z,27.1
2023-03-11T10:47:28.000Z,27.1
2023-03-11T10:48:38.955Z,27.1
2023-03-11T10:49:49.000Z,26.9
2023-03-11T10:50:59.000Z,26.9
2023-03-11T10:52:09.000Z,26.9
2023-03-11T10:53:19.421Z,26.9
2023-03-11T10:54:29.531Z,26.9
2023-03-11T10:55:38.000Z,26.9
2023-03-11T10:56:48.778Z,26.9
2023-03-11T10:57:58.000Z,26.7
2023-03-11T10:59:08.000Z,26.8
2023-03-11T11:00:19.130Z,26.7
2023-03-11T11:01:29.000Z,26.7
2023-03-11T11:02:39.000Z,26.7
2023-03-11T11:03:49.000Z,26.6
2023-03-11T11:04:59.000Z,26.6
2023-03-11T11:06:09.000Z,26.6
2023-03-11T11:07:19.000Z,26.6
2023-03-11T11:08:29.948Z,26.5
2023-03-11T11:09:40.000Z,26.5
2023-03-11T11:10:49.000Z,26.5
2023-03-11T11:11:59.000Z,26.5
2023-03-11T11:13:09.426Z,26.5
2023-03-11T11:14:19.540Z,26.4
2023-03-11T11:15:29.658Z,26.4
2023-03-11T11:16:39.770Z,26.4
2023-03-11T11:17:49.889Z,26.4
2023-03-11T11:18:59.000Z,26.3
2023-03-11T11:20:10.000Z,26.3
2023-03-11T11:21:20.000Z,26.2
2023-03-11T11:22:30.000Z,26.2
2023-03-11T11:23:40.470Z,26.1
2023-03-11T11:24:50.579Z,26.1
2023-03-11T11:25:59.000Z,26.1
2023-03-11T11:27:09.000Z,26
2023-03-11T11:28:19.000Z,26
2023-03-11T11:29:30.000Z,25.9
2023-03-11T11:30:40.000Z,25.8
2023-03-11T11:33:00.000Z,25.4
2023-03-11T11:34:10.000Z,25.1
2023-03-11T11:35:20.000Z,24.8
2023-03-11T11:36:30.000Z,24.4
2023-03-11T11:37:40.000Z,24.1
2023-03-11T11:38:51.006Z,23.8
2023-03-11T11:40:01.000Z,23.4
2023-03-11T11:41:10.000Z,23
2023-03-11T11:42:20.000Z,22.6
2023-03-11T11:43:30.000Z,22.4
2023-03-11T11:44:40.585Z,22.1
2023-03-11T11:45:50.000Z,22
2023-03-11T11:47:00.826Z,21.9
2023-03-11T11:48:10.000Z,21.7
2023-03-11T11:49:21.000Z,21.6
2023-03-11T11:50:31.170Z,21.5
2023-03-11T11:51:41.288Z,21.4
2023-03-11T11:52:51.000Z,21.2
2023-03-11T11:54:01.000Z,21.1
2023-03-11T11:55:11.000Z,21
2023-03-11T11:56:20.767Z,20.9
2023-03-11T11:57:30.000Z,20.8
2023-03-11T11:58:40.995Z,20.7
2023-03-11T11:59:51.000Z,20.6
2023-03-11T12:01:01.233Z,20.6
2023-03-11T12:02:11.351Z,20.5
2023-03-11T12:03:21.000Z,20.6
2023-03-11T12:04:31.580Z,20.6
2023-03-11T12:05:41.000Z,20.6
2023-03-11T12:06:51.000Z,20.6
2023-03-11T12:08:01.933Z,20.4
2023-03-11T12:09:12.000Z,20.1
2023-03-11T12:10:22.157Z,19.8
2023-03-11T12:11:31.295Z,19.7
2023-03-11T12:12:41.419Z,19.6
2023-03-11T12:13:51.000Z,19.6
2023-03-11T12:15:01.000Z,19.5
2023-03-11T12:16:11.761Z,19.4
2023-03-11T12:17:21.000Z,19.4
2023-03-11T12:18:31.000Z,19.4
2023-03-11T12:19:42.099Z,19.3
2023-03-11T12:20:52.000Z,19.3
2023-03-11T12:22:02.000Z,19.6
2023-03-11T12:23:12.000Z,19.7
2023-03-11T12:24:22.566Z,20.1
2023-03-11T12:25:32.000Z,19.8
2023-03-11T12:26:41.000Z,19.5
2023-03-11T12:27:51.938Z,19.2
2023-03-11T12:29:02.000Z,19.1
2023-03-11T12:30:12.166Z,19
2023-03-11T12:31:22.280Z,19.2
2023-03-11T12:32:32.396Z,19.3
2023-03-11T12:33:42.000Z,19.3
2023-03-11T12:34:52.633Z,19.5
2023-03-11T12:36:02.755Z,19.6
2023-03-11T12:37:12.860Z,19.9
2023-03-11T12:38:22.000Z,20.2
2023-03-11T12:39:33.088Z,20.6
2023-03-11T12:40:43.000Z,21
2023-03-11T12:41:52.000Z,21.2
2023-03-11T12:43:02.000Z,21.5
2023-03-11T12:44:12.000Z,21.7
2023-03-11T12:45:22.000Z,21.9
2023-03-11T12:46:32.000Z,22.1
2023-03-11T12:47:41.000Z,22.3
2023-03-11T12:48:52.000Z,22.4
2023-03-11T12:50:02.000Z,22.5
2023-03-11T12:51:12.000Z,22.7
2023-03-11T12:52:22.404Z,22.8
2023-03-11T12:53:32.530Z,22.9
2023-03-11T12:54:42.635Z,23
2023-03-11T12:55:52.000Z,23.1
2023-03-11T12:57:02.000Z,23.2
2023-03-11T12:58:12.000Z,23.3
2023-03-11T12:59:23.000Z,23.4
2023-03-11T13:00:33.000Z,23.4
2023-03-11T13:01:43.000Z,23.5
2023-03-11T13:02:52.000Z,23.6
2023-03-11T13:04:02.000Z,23.6
2023-03-11T13:05:12.000Z,23.6
2023-03-11T13:06:22.000Z,23.7
2023-03-11T13:07:32.000Z,23.7
2023-03-11T13:08:43.045Z,23.8
2023-03-11T13:09:53.000Z,23.8
2023-03-11T13:11:03.000Z,23.9
2023-03-11T13:12:13.000Z,23.8
2023-03-11T13:13:23.000Z,23.8
2023-03-11T13:14:33.623Z,23.8
2023-03-11T13:15:43.000Z,23.8
2023-03-11T13:16:53.866Z,23.9
2023-03-11T13:18:02.988Z,23.8
2023-03-11T13:19:13.000Z,23.9
2023-03-11T13:20:23.000Z,23.8
2023-03-11T13:21:33.000Z,23.8
2023-03-11T13:22:43.461Z,23.8
2023-03-11T13:23:53.567Z,23.8
2023-03-11T13:25:03.687Z,23.8
2023-03-11T13:26:13.000Z,23.8
2023-03-11T13:27:23.000Z,23.8
2023-03-11T13:28:34.000Z,23.8
2023-03-11T13:29:44.151Z,23.8
2023-03-11T13:30:54.262Z,23.8
2023-03-11T13:32:04.000Z,23.8
2023-03-11T13:33:13.509Z,23.8
2023-03-11T13:34:23.000Z,23.8
2023-03-11T13:35:33.748Z,23.8
2023-03-11T13:36:43.000Z,23.8
2023-03-11T13:37:53.000Z,23.8
2023-03-11T13:39:04.000Z,23.8
2023-03-11T13:40:14.000Z,23.8
2023-03-11T13:41:24.000Z,23.8
2023-03-11T13:42:34.000Z,23.8
2023-03-11T13:43:44.000Z,23.8
2023-03-11T13:44:54.000Z,23.8
2023-03-11T13:46:04.790Z,23.8
2023-03-11T13:47:14.911Z,23.8
2023-03-11T13:48:24.000Z,23.8
2023-03-11T13:49:34.154Z,23.7
2023-03-11T13:50:44.000Z,23.7
2023-03-11T13:51:54.000Z,23.7
2023-03-11T13:53:04.512Z,23.6
2023-03-11T13:54:14.000Z,23.6
2023-03-11T13:55:24.000Z,23.6
2023-03-11T13:56:34.000Z,23.5
2023-03-11T13:57:44.000Z,23.5
2023-03-11T13:58:55.081Z,23.5
2023-03-11T14:00:05.208Z,23.4
2023-03-11T14:01:15.000Z,23.4
2023-03-11T14:02:25.000Z,23.3
2023-03-11T14:03:34.000Z,23.3
2023-03-11T14:04:44.679Z,23.2
2023-03-11T14:05:54.000Z,23.1
2023-03-11T14:07:04.000Z,22.9
2023-03-11T14:08:15.000Z,22.7
2023-03-11T14:09:25.152Z,22.6
2023-03-11T14:10:35.000Z,22.5
2023-03-11T14:11:45.375Z,22.4
2023-03-11T14:12:55.496Z,22.2
2023-03-11T14:14:05.000Z,22
2023-03-11T14:15:15.000Z,21.9
2023-03-11T14:16:25.000Z,21.8
2023-03-11T14:17:35.000Z,21.6
2023-03-11T14:18:45.000Z,21.5
2023-03-11T14:19:55.000Z,21.4
2023-03-11T14:21:05.316Z,21.3
2023-03-11T14:22:15.000Z,21.2
2023-03-11T14:23:25.551Z,21.1
2023-03-11T14:24:35.000Z,21.1
2023-03-11T14:25:45.783Z,21
2023-03-11T14:26:55.000Z,20.9
2023-03-11T14:28:06.016Z,20.9
2023-03-11T14:29:16.000Z,20.9
2023-03-11T14:30:26.000Z,20.9
2023-03-11T14:31:36.000Z,20.8
2023-03-11T14:32:46.479Z,20.8
2023-03-11T14:33:55.000Z,20.8
2023-03-11T14:35:05.000Z,20.8
2023-03-11T14:36:15.000Z,20.7
2023-03-11T14:37:25.000Z,20.7
2023-03-11T14:38:36.000Z,20.7
2023-03-11T14:39:46.193Z,20.7
2023-03-11T14:40:56.000Z,20.6
2023-03-11T14:42:06.000Z,20.6
2023-03-11T14:43:16.000Z,20.6
2023-03-11T14:44:26.000Z,20.5
2023-03-11T14:45:36.777Z,20.5
2023-03-11T14:46:46.000Z,20.4
2023-03-11T14:47:57.012Z,20.4
2023-03-11T14:49:06.140Z,20.4
2023-03-11T14:50:16.000Z,20.4
2023-03-11T14:51:26.000Z,20.3
2023-03-11T14:52:36.000Z,20.3
2023-03-11T14:53:46.000Z,20.3
2023-03-11T14:54:56.000Z,20.2
2023-03-11T14:56:06.000Z,20.3
2023-03-11T14:57:16.000Z,20.2
2023-03-11T14:58:27.000Z,20.4
2023-03-11T14:59:37.000Z,20.4
2023-03-11T15:00:47.000Z,20.3
2023-03-11T15:01:57.000Z,20.4
2023-03-11T15:03:07.000Z,20.4
2023-03-11T15:04:16.673Z,20.4
2023-03-11T15:05:26.000Z,20.4
2023-03-11T15:06:36.000Z,20.4
2023-03-11T15:07:47.015Z,20.4
2023-03-11T15:08:57.145Z,20.3
2023-03-11T15:10:07.262Z,20.1
2023-03-11T15:11:17.369Z,20.1
2023-03-11T15:12:27.487Z,20.1
2023-03-11T15:13:37.000Z,20.1
2023-03-11T15:14:47.000Z,20.1
2023-03-11T15:15:57.832Z,20.1
2023-03-11T15:17:07.953Z,20.1
2023-03-11T15:18:18.000Z,20.1
2023-03-11T15:19:27.198Z,20.1
2023-03-11T15:20:37.000Z,20.1
2023-03-11T15:21:47.000Z,20.1
2023-03-11T15:22:57.542Z,20.1
2023-03-11T15:24:07.000Z,20.1
2023-03-11T15:26:27.000Z,20.3
2023-03-11T15:27:37.000Z,20.3
2023-03-11T15:28:48.000Z,20.4
2023-03-11T15:29:58.000Z,20.4
2023-03-11T15:31:08.357Z,20.4
2023-03-11T15:32:18.482Z,20.4
2023-03-11T15:33:28.587Z,20.6
2023-03-11T15:34:37.728Z,20.6
2023-03-11T15:35:47.000Z,20.7
2023-03-11T15:36:57.000Z,20.8
2023-03-11T15:38:08.000Z,20.8
2023-03-11T15:39:18.000Z,20.9
2023-03-11T15:40:28.309Z,20.9
2023-03-11T15:41:38.000Z,21
2023-03-11T15:42:48.000Z,21.1
2023-03-11T15:43:58.669Z,21
2023-03-11T15:45:08.779Z,21
2023-03-11T15:46:18.889Z,21
2023-03-11T15:47:29.009Z,21
2023-03-11T15:48:39.000Z,21
2023-03-11T15:49:48.000Z,21.1
2023-03-11T15:50:58.368Z,21.2
2023-03-11T15:52:08.000Z,21.2
2023-03-11T15:53:18.000Z,21.2
2023-03-11T15:54:28.000Z,21.2
2023-03-11T15:55:38.837Z,21.2
2023-03-11T15:56:48.000Z,21.2
2023-03-11T15:57:59.077Z,21.2
2023-03-11T15:59:09.000Z,21.3
2023-03-11T16:00:19.000Z,21.3
2023-03-11T16:01:29.000Z,21.4
2023-03-11T16:02:39.000Z,21.5
2023-03-11T16:03:49.000Z,21.6
2023-03-11T16:04:58.778Z,21.6